sensor_id;sensor_type;location;lat;lon;timestamp;temperature;humidity
3208;DHT22;1616;52.394;9.756;2024-03-06T00:00:10;5.70;99.90
3208;DHT22;1616;52.394;9.756;2024-03-06T00:02:36;5.70;99.90
3208;DHT22;1616;52.394;9.756;2024-03-06T00:05:02;5.70;99.90
3208;DHT22;1616;52.394;9.756;2024-03-06T00:07:28;5.70;99.90
3208;DHT22;1616;52.394;9.756;2024-03-06T00:09:53;5.70;99.90
3208;DHT22;1616;52.394;9.756;2024-03-06T00:12:19;5.70;99.90
3208;DHT22;1616;52.394;9.756;2024-03-06T00:14:45;5.70;99.90
3208;DHT22;1616;52.394;9.756;2024-03-06T00:17:10;5.70;99.90
3208;DHT22;1616;52.394;9.756;2024-03-06T00:19:36;5.70;99.90
3208;DHT22;1616;52.394;9.756;2024-03-06T00:22:01;5.70;99.90
3208;DHT22;1616;52.394;9.756;2024-03-06T00:24:28;5.70;99.90
3208;DHT22;1616;52.394;9.756;2024-03-06T00:26:53;5.70;99.90
3208;DHT22;1616;52.394;9.756;2024-03-06T00:29:19;5.70;99.90
3208;DHT22;1616;52.394;9.756;2024-03-06T00:31:45;5.70;99.90
3208;DHT22;1616;52.394;9.756;2024-03-06T00:34:11;5.70;99.90
3208;DHT22;1616;52.394;9.756;2024-03-06T00:36:42;5.70;99.90
3208;DHT22;1616;52.394;9.756;2024-03-06T00:39:09;5.70;99.90
3208;DHT22;1616;52.394;9.756;2024-03-06T00:41:35;5.70;99.90
3208;DHT22;1616;52.394;9.756;2024-03-06T00:44:01;5.70;99.90
3208;DHT22;1616;52.394;9.756;2024-03-06T00:46:27;5.70;99.90
3208;DHT22;1616;52.394;9.756;2024-03-06T00:48:57;5.70;99.90
3208;DHT22;1616;52.394;9.756;2024-03-06T00:51:23;5.70;99.90
3208;DHT22;1616;52.394;9.756;2024-03-06T00:53:48;5.70;99.90
3208;DHT22;1616;52.394;9.756;2024-03-06T00:56:14;5.80;99.90
3208;DHT22;1616;52.394;9.756;2024-03-06T00:58:40;5.70;99.90
3208;DHT22;1616;52.394;9.756;2024-03-06T01:01:05;5.80;99.90
3208;DHT22;1616;52.394;9.756;2024-03-06T01:03:31;5.80;99.90
3208;DHT22;1616;52.394;9.756;2024-03-06T01:05:56;5.80;99.90
3208;DHT22;1616;52.394;9.756;2024-03-06T01:08:22;5.80;99.90
3208;DHT22;1616;52.394;9.756;2024-03-06T01:10:53;5.80;99.90
3208;DHT22;1616;52.394;9.756;2024-03-06T01:13:20;5.80;99.90
3208;DHT22;1616;52.394;9.756;2024-03-06T01:15:45;5.80;99.90
3208;DHT22;1616;52.394;9.756;2024-03-06T01:18:12;5.90;99.90
3208;DHT22;1616;52.394;9.756;2024-03-06T01:20:38;5.90;99.90
3208;DHT22;1616;52.394;9.756;2024-03-06T01:23:04;5.90;99.90
3208;DHT22;1616;52.394;9.756;2024-03-06T01:25:30;5.90;99.90
3208;DHT22;1616;52.394;9.756;2024-03-06T01:27:55;5.90;99.90
3208;DHT22;1616;52.394;9.756;2024-03-06T01:30:21;5.90;99.90
3208;DHT22;1616;52.394;9.756;2024-03-06T01:32:47;5.90;99.90
3208;DHT22;1616;52.394;9.756;2024-03-06T01:35:12;5.90;99.90
3208;DHT22;1616;52.394;9.756;2024-03-06T01:37:38;5.90;99.90
3208;DHT22;1616;52.394;9.756;2024-03-06T01:40:05;5.90;99.90
3208;DHT22;1616;52.394;9.756;2024-03-06T01:42:31;5.90;99.90
3208;DHT22;1616;52.394;9.756;2024-03-06T01:44:57;5.90;99.90
3208;DHT22;1616;52.394;9.756;2024-03-06T01:47:22;5.90;99.90
3208;DHT22;1616;52.394;9.756;2024-03-06T01:49:48;5.90;99.90
3208;DHT22;1616;52.394;9.756;2024-03-06T01:52:15;5.90;99.90
3208;DHT22;1616;52.394;9.756;2024-03-06T01:54:42;5.90;99.90
3208;DHT22;1616;52.394;9.756;2024-03-06T01:57:08;5.90;99.90
3208;DHT22;1616;52.394;9.756;2024-03-06T01:59:35;5.90;99.90
3208;DHT22;1616;52.394;9.756;2024-03-06T02:02:01;5.80;99.90
3208;DHT22;1616;52.394;9.756;2024-03-06T02:04:29;5.90;99.90
3208;DHT22;1616;52.394;9.756;2024-03-06T02:06:54;5.80;99.90
3208;DHT22;1616;52.394;9.756;2024-03-06T02:09:20;5.80;99.90
3208;DHT22;1616;52.394;9.756;2024-03-06T02:11:46;5.80;99.90
3208;DHT22;1616;52.394;9.756;2024-03-06T02:14:12;5.80;99.90
3208;DHT22;1616;52.394;9.756;2024-03-06T02:16:38;5.80;99.90
3208;DHT22;1616;52.394;9.756;2024-03-06T02:19:08;5.80;99.90
3208;DHT22;1616;52.394;9.756;2024-03-06T02:21:34;5.80;99.90
3208;DHT22;1616;52.394;9.756;2024-03-06T02:24:00;5.80;99.90
3208;DHT22;1616;52.394;9.756;2024-03-06T02:26:25;5.80;99.90
3208;DHT22;1616;52.394;9.756;2024-03-06T02:28:53;5.80;99.90
3208;DHT22;1616;52.394;9.756;2024-03-06T02:31:20;5.80;99.90
3208;DHT22;1616;52.394;9.756;2024-03-06T02:33:47;5.80;99.90
3208;DHT22;1616;52.394;9.756;2024-03-06T02:36:14;5.80;99.90
3208;DHT22;1616;52.394;9.756;2024-03-06T02:38:40;5.70;99.90
3208;DHT22;1616;52.394;9.756;2024-03-06T02:41:06;5.70;99.90
3208;DHT22;1616;52.394;9.756;2024-03-06T02:43:33;5.70;99.90
3208;DHT22;1616;52.394;9.756;2024-03-06T02:45:59;5.80;99.90
3208;DHT22;1616;52.394;9.756;2024-03-06T02:48:24;5.70;99.90
3208;DHT22;1616;52.394;9.756;2024-03-06T02:50:50;5.70;99.90
3208;DHT22;1616;52.394;9.756;2024-03-06T02:53:16;5.70;99.90
3208;DHT22;1616;52.394;9.756;2024-03-06T02:55:41;5.70;99.90
3208;DHT22;1616;52.394;9.756;2024-03-06T02:58:07;5.70;99.90
3208;DHT22;1616;52.394;9.756;2024-03-06T03:00:32;5.70;99.90
3208;DHT22;1616;52.394;9.756;2024-03-06T03:02:58;5.70;99.90
3208;DHT22;1616;52.394;9.756;2024-03-06T03:05:24;5.70;99.90
3208;DHT22;1616;52.394;9.756;2024-03-06T03:07:50;5.70;99.90
3208;DHT22;1616;52.394;9.756;2024-03-06T03:10:16;5.70;99.90
3208;DHT22;1616;52.394;9.756;2024-03-06T03:12:43;5.70;99.90
3208;DHT22;1616;52.394;9.756;2024-03-06T03:15:09;5.70;99.90
3208;DHT22;1616;52.394;9.756;2024-03-06T03:17:35;5.70;99.90
3208;DHT22;1616;52.394;9.756;2024-03-06T03:20:04;5.70;99.90
3208;DHT22;1616;52.394;9.756;2024-03-06T03:22:39;5.70;99.90
3208;DHT22;1616;52.394;9.756;2024-03-06T03:25:12;5.70;99.90
3208;DHT22;1616;52.394;9.756;2024-03-06T03:27:39;5.70;99.90
3208;DHT22;1616;52.394;9.756;2024-03-06T03:30:12;5.70;99.90
3208;DHT22;1616;52.394;9.756;2024-03-06T03:32:38;5.70;99.90
3208;DHT22;1616;52.394;9.756;2024-03-06T03:35:05;5.70;99.90
3208;DHT22;1616;52.394;9.756;2024-03-06T03:37:31;5.70;99.90
3208;DHT22;1616;52.394;9.756;2024-03-06T03:39:57;5.70;99.90
3208;DHT22;1616;52.394;9.756;2024-03-06T03:42:22;5.70;99.90
3208;DHT22;1616;52.394;9.756;2024-03-06T03:44:48;5.70;99.90
3208;DHT22;1616;52.394;9.756;2024-03-06T03:47:14;5.70;99.90
3208;DHT22;1616;52.394;9.756;2024-03-06T03:49:40;5.70;99.90
3208;DHT22;1616;52.394;9.756;2024-03-06T03:52:06;5.70;99.90
3208;DHT22;1616;52.394;9.756;2024-03-06T03:54:32;5.70;99.90
3208;DHT22;1616;52.394;9.756;2024-03-06T03:56:57;5.70;99.90
3208;DHT22;1616;52.394;9.756;2024-03-06T03:59:25;5.70;99.90
3208;DHT22;1616;52.394;9.756;2024-03-06T04:01:51;5.70;99.90
3208;DHT22;1616;52.394;9.756;2024-03-06T04:04:17;5.60;99.90
3208;DHT22;1616;52.394;9.756;2024-03-06T04:06:43;5.60;99.90
3208;DHT22;1616;52.394;9.756;2024-03-06T04:09:08;5.60;99.90
3208;DHT22;1616;52.394;9.756;2024-03-06T04:11:38;5.60;99.90
3208;DHT22;1616;52.394;9.756;2024-03-06T04:14:04;5.60;99.90
3208;DHT22;1616;52.394;9.756;2024-03-06T04:16:32;5.60;99.90
3208;DHT22;1616;52.394;9.756;2024-03-06T04:18:58;5.60;99.90
3208;DHT22;1616;52.394;9.756;2024-03-06T04:21:23;5.60;99.90
3208;DHT22;1616;52.394;9.756;2024-03-06T04:23:49;5.60;99.90
3208;DHT22;1616;52.394;9.756;2024-03-06T04:26:16;5.60;99.90
3208;DHT22;1616;52.394;9.756;2024-03-06T04:28:44;5.60;99.90
3208;DHT22;1616;52.394;9.756;2024-03-06T04:31:10;5.50;99.90
3208;DHT22;1616;52.394;9.756;2024-03-06T04:33:36;5.50;99.90
3208;DHT22;1616;52.394;9.756;2024-03-06T04:36:03;5.50;99.90
3208;DHT22;1616;52.394;9.756;2024-03-06T04:38:29;5.60;99.90
3208;DHT22;1616;52.394;9.756;2024-03-06T04:40:54;5.60;99.90
3208;DHT22;1616;52.394;9.756;2024-03-06T04:43:20;5.60;99.90
3208;DHT22;1616;52.394;9.756;2024-03-06T04:45:46;5.60;99.90
3208;DHT22;1616;52.394;9.756;2024-03-06T04:48:11;5.60;99.90
3208;DHT22;1616;52.394;9.756;2024-03-06T04:50:37;5.60;99.90
3208;DHT22;1616;52.394;9.756;2024-03-06T04:53:03;5.60;99.90
3208;DHT22;1616;52.394;9.756;2024-03-06T04:55:29;5.60;99.90
3208;DHT22;1616;52.394;9.756;2024-03-06T04:57:56;5.60;99.90
3208;DHT22;1616;52.394;9.756;2024-03-06T05:00:22;5.60;99.90
3208;DHT22;1616;52.394;9.756;2024-03-06T05:02:48;5.60;99.90
3208;DHT22;1616;52.394;9.756;2024-03-06T05:05:17;5.60;99.90
3208;DHT22;1616;52.394;9.756;2024-03-06T05:07:43;5.60;99.90
3208;DHT22;1616;52.394;9.756;2024-03-06T05:10:09;5.60;99.90
3208;DHT22;1616;52.394;9.756;2024-03-06T05:12:35;5.60;99.90
3208;DHT22;1616;52.394;9.756;2024-03-06T05:15:00;5.60;99.90
3208;DHT22;1616;52.394;9.756;2024-03-06T05:17:28;5.60;99.90
3208;DHT22;1616;52.394;9.756;2024-03-06T05:19:55;5.60;99.90
3208;DHT22;1616;52.394;9.756;2024-03-06T05:22:21;5.60;99.90
3208;DHT22;1616;52.394;9.756;2024-03-06T05:24:46;5.60;99.90
3208;DHT22;1616;52.394;9.756;2024-03-06T05:27:12;5.60;99.90
3208;DHT22;1616;52.394;9.756;2024-03-06T05:29:43;5.60;99.90
3208;DHT22;1616;52.394;9.756;2024-03-06T05:32:09;5.60;99.90
3208;DHT22;1616;52.394;9.756;2024-03-06T05:34:35;5.60;99.90
3208;DHT22;1616;52.394;9.756;2024-03-06T05:37:01;5.60;99.90
3208;DHT22;1616;52.394;9.756;2024-03-06T05:39:30;5.60;99.90
3208;DHT22;1616;52.394;9.756;2024-03-06T05:41:59;5.60;99.90
3208;DHT22;1616;52.394;9.756;2024-03-06T05:44:25;5.60;99.90
3208;DHT22;1616;52.394;9.756;2024-03-06T05:46:52;5.60;99.90
3208;DHT22;1616;52.394;9.756;2024-03-06T05:49:18;5.60;99.90
3208;DHT22;1616;52.394;9.756;2024-03-06T05:51:44;5.60;99.90
3208;DHT22;1616;52.394;9.756;2024-03-06T05:54:11;5.60;99.90
3208;DHT22;1616;52.394;9.756;2024-03-06T05:56:36;5.70;99.90
3208;DHT22;1616;52.394;9.756;2024-03-06T05:59:02;5.60;99.90
3208;DHT22;1616;52.394;9.756;2024-03-06T06:01:31;5.60;99.90
3208;DHT22;1616;52.394;9.756;2024-03-06T06:03:56;5.60;99.90
3208;DHT22;1616;52.394;9.756;2024-03-06T06:06:22;5.70;99.90
3208;DHT22;1616;52.394;9.756;2024-03-06T06:08:48;5.60;99.90
3208;DHT22;1616;52.394;9.756;2024-03-06T06:11:14;5.60;99.90
3208;DHT22;1616;52.394;9.756;2024-03-06T06:13:39;5.60;99.90
3208;DHT22;1616;52.394;9.756;2024-03-06T06:16:06;5.60;99.90
3208;DHT22;1616;52.394;9.756;2024-03-06T06:18:31;5.60;99.90
3208;DHT22;1616;52.394;9.756;2024-03-06T06:20:58;5.60;99.90
3208;DHT22;1616;52.394;9.756;2024-03-06T06:23:24;5.60;99.90
3208;DHT22;1616;52.394;9.756;2024-03-06T06:25:50;5.60;99.90
3208;DHT22;1616;52.394;9.756;2024-03-06T06:28:16;5.60;99.90
3208;DHT22;1616;52.394;9.756;2024-03-06T06:30:42;5.60;99.90
3208;DHT22;1616;52.394;9.756;2024-03-06T06:33:09;5.60;99.90
3208;DHT22;1616;52.394;9.756;2024-03-06T06:35:36;5.60;99.90
3208;DHT22;1616;52.394;9.756;2024-03-06T06:38:02;5.60;99.90
3208;DHT22;1616;52.394;9.756;2024-03-06T06:40:28;5.60;99.90
3208;DHT22;1616;52.394;9.756;2024-03-06T06:42:54;5.60;99.90
3208;DHT22;1616;52.394;9.756;2024-03-06T06:45:21;5.60;99.90
3208;DHT22;1616;52.394;9.756;2024-03-06T06:47:49;5.60;99.90
3208;DHT22;1616;52.394;9.756;2024-03-06T06:50:15;5.60;99.90
3208;DHT22;1616;52.394;9.756;2024-03-06T06:52:41;5.70;99.90
3208;DHT22;1616;52.394;9.756;2024-03-06T06:55:07;5.70;99.90
3208;DHT22;1616;52.394;9.756;2024-03-06T06:57:37;5.80;99.90
3208;DHT22;1616;52.394;9.756;2024-03-06T07:00:07;5.80;99.90
3208;DHT22;1616;52.394;9.756;2024-03-06T07:02:41;5.80;99.90
3208;DHT22;1616;52.394;9.756;2024-03-06T07:05:08;5.90;99.90
3208;DHT22;1616;52.394;9.756;2024-03-06T07:07:34;5.90;99.90
3208;DHT22;1616;52.394;9.756;2024-03-06T07:10:01;5.90;99.90
3208;DHT22;1616;52.394;9.756;2024-03-06T07:12:27;5.90;99.90
3208;DHT22;1616;52.394;9.756;2024-03-06T07:14:53;6.00;99.90
3208;DHT22;1616;52.394;9.756;2024-03-06T07:17:18;6.00;99.90
3208;DHT22;1616;52.394;9.756;2024-03-06T07:19:44;6.00;99.90
3208;DHT22;1616;52.394;9.756;2024-03-06T07:22:09;6.00;99.90
3208;DHT22;1616;52.394;9.756;2024-03-06T07:24:35;6.10;99.90
3208;DHT22;1616;52.394;9.756;2024-03-06T07:27:02;6.10;99.90
3208;DHT22;1616;52.394;9.756;2024-03-06T07:29:30;6.10;99.90
3208;DHT22;1616;52.394;9.756;2024-03-06T07:31:56;6.10;99.90
3208;DHT22;1616;52.394;9.756;2024-03-06T07:34:22;6.00;99.90
3208;DHT22;1616;52.394;9.756;2024-03-06T07:36:48;6.10;99.90
3208;DHT22;1616;52.394;9.756;2024-03-06T07:39:18;6.20;99.90
3208;DHT22;1616;52.394;9.756;2024-03-06T07:41:44;6.20;99.90
3208;DHT22;1616;52.394;9.756;2024-03-06T07:44:09;6.20;99.90
3208;DHT22;1616;52.394;9.756;2024-03-06T07:46:35;6.30;99.90
3208;DHT22;1616;52.394;9.756;2024-03-06T07:49:02;6.30;99.90
3208;DHT22;1616;52.394;9.756;2024-03-06T07:51:29;6.40;99.90
3208;DHT22;1616;52.394;9.756;2024-03-06T07:53:56;6.50;99.90
3208;DHT22;1616;52.394;9.756;2024-03-06T07:56:23;6.50;99.90
3208;DHT22;1616;52.394;9.756;2024-03-06T07:58:49;6.50;99.90
3208;DHT22;1616;52.394;9.756;2024-03-06T08:01:15;6.50;99.90
3208;DHT22;1616;52.394;9.756;2024-03-06T08:03:41;6.50;99.90
3208;DHT22;1616;52.394;9.756;2024-03-06T08:06:09;6.50;99.90
3208;DHT22;1616;52.394;9.756;2024-03-06T08:08:35;6.60;99.90
3208;DHT22;1616;52.394;9.756;2024-03-06T08:11:02;6.60;99.90
3208;DHT22;1616;52.394;9.756;2024-03-06T08:13:28;6.60;99.90
3208;DHT22;1616;52.394;9.756;2024-03-06T08:15:53;6.60;99.90
3208;DHT22;1616;52.394;9.756;2024-03-06T08:18:19;6.60;99.90
3208;DHT22;1616;52.394;9.756;2024-03-06T08:20:45;6.70;99.90
3208;DHT22;1616;52.394;9.756;2024-03-06T08:23:10;6.70;99.90
3208;DHT22;1616;52.394;9.756;2024-03-06T08:25:36;6.70;99.90
3208;DHT22;1616;52.394;9.756;2024-03-06T08:28:02;6.70;99.90
3208;DHT22;1616;52.394;9.756;2024-03-06T08:30:31;6.80;99.90
3208;DHT22;1616;52.394;9.756;2024-03-06T08:32:57;6.80;99.90
3208;DHT22;1616;52.394;9.756;2024-03-06T08:35:23;6.80;99.90
3208;DHT22;1616;52.394;9.756;2024-03-06T08:37:50;6.80;99.90
3208;DHT22;1616;52.394;9.756;2024-03-06T08:40:16;6.90;99.90
3208;DHT22;1616;52.394;9.756;2024-03-06T08:42:49;6.90;99.90
3208;DHT22;1616;52.394;9.756;2024-03-06T08:45:15;6.90;99.90
3208;DHT22;1616;52.394;9.756;2024-03-06T08:47:42;6.90;99.90
3208;DHT22;1616;52.394;9.756;2024-03-06T08:50:09;7.00;99.90
3208;DHT22;1616;52.394;9.756;2024-03-06T08:52:35;7.00;99.90
3208;DHT22;1616;52.394;9.756;2024-03-06T08:55:03;7.10;99.90
3208;DHT22;1616;52.394;9.756;2024-03-06T08:57:32;7.10;99.90
3208;DHT22;1616;52.394;9.756;2024-03-06T08:59:58;7.10;99.90
3208;DHT22;1616;52.394;9.756;2024-03-06T09:02:25;7.30;99.90
3208;DHT22;1616;52.394;9.756;2024-03-06T09:04:52;7.30;99.90
3208;DHT22;1616;52.394;9.756;2024-03-06T09:07:18;7.30;99.90
3208;DHT22;1616;52.394;9.756;2024-03-06T09:09:44;7.40;99.90
3208;DHT22;1616;52.394;9.756;2024-03-06T09:12:11;7.50;99.90
3208;DHT22;1616;52.394;9.756;2024-03-06T09:14:38;7.50;99.90
3208;DHT22;1616;52.394;9.756;2024-03-06T09:17:05;7.60;99.90
3208;DHT22;1616;52.394;9.756;2024-03-06T09:19:32;7.80;99.90
3208;DHT22;1616;52.394;9.756;2024-03-06T09:21:58;7.90;99.90
3208;DHT22;1616;52.394;9.756;2024-03-06T09:24:24;8.00;99.90
3208;DHT22;1616;52.394;9.756;2024-03-06T09:26:53;8.10;99.90
3208;DHT22;1616;52.394;9.756;2024-03-06T09:29:20;8.30;99.90
3208;DHT22;1616;52.394;9.756;2024-03-06T09:31:47;8.40;99.90
3208;DHT22;1616;52.394;9.756;2024-03-06T09:34:14;8.50;99.90
3208;DHT22;1616;52.394;9.756;2024-03-06T09:36:41;8.70;99.90
3208;DHT22;1616;52.394;9.756;2024-03-06T09:39:11;8.80;99.90
3208;DHT22;1616;52.394;9.756;2024-03-06T09:41:37;8.80;99.90
3208;DHT22;1616;52.394;9.756;2024-03-06T09:44:06;8.90;99.90
3208;DHT22;1616;52.394;9.756;2024-03-06T09:46:33;9.00;99.90
3208;DHT22;1616;52.394;9.756;2024-03-06T09:49:00;9.10;99.90
3208;DHT22;1616;52.394;9.756;2024-03-06T09:51:26;9.10;99.90
3208;DHT22;1616;52.394;9.756;2024-03-06T09:53:53;9.20;99.90
3208;DHT22;1616;52.394;9.756;2024-03-06T09:56:19;9.30;99.90
3208;DHT22;1616;52.394;9.756;2024-03-06T09:58:45;9.30;99.90
3208;DHT22;1616;52.394;9.756;2024-03-06T10:01:13;9.40;99.90
3208;DHT22;1616;52.394;9.756;2024-03-06T10:03:40;9.40;99.90
3208;DHT22;1616;52.394;9.756;2024-03-06T10:06:09;9.40;99.90
3208;DHT22;1616;52.394;9.756;2024-03-06T10:08:35;9.40;99.90
3208;DHT22;1616;52.394;9.756;2024-03-06T10:11:03;9.60;99.90
3208;DHT22;1616;52.394;9.756;2024-03-06T10:13:30;9.70;99.90
3208;DHT22;1616;52.394;9.756;2024-03-06T10:16:03;9.90;99.90
3208;DHT22;1616;52.394;9.756;2024-03-06T10:18:30;10.00;99.90
3208;DHT22;1616;52.394;9.756;2024-03-06T10:20:57;10.20;99.90
3208;DHT22;1616;52.394;9.756;2024-03-06T10:23:23;10.40;99.40
3208;DHT22;1616;52.394;9.756;2024-03-06T10:25:50;10.60;99.30
3208;DHT22;1616;52.394;9.756;2024-03-06T10:28:19;10.90;98.90
3208;DHT22;1616;52.394;9.756;2024-03-06T10:30:45;11.20;97.40
3208;DHT22;1616;52.394;9.756;2024-03-06T10:33:13;11.30;96.40
3208;DHT22;1616;52.394;9.756;2024-03-06T10:35:41;11.40;95.30
3208;DHT22;1616;52.394;9.756;2024-03-06T10:38:08;11.60;94.40
3208;DHT22;1616;52.394;9.756;2024-03-06T10:40:36;11.60;93.90
3208;DHT22;1616;52.394;9.756;2024-03-06T10:43:03;11.60;93.60
3208;DHT22;1616;52.394;9.756;2024-03-06T10:45:58;11.80;93.10
3208;DHT22;1616;52.394;9.756;2024-03-06T10:48:26;11.70;92.40
3208;DHT22;1616;52.394;9.756;2024-03-06T10:50:53;11.70;92.20
3208;DHT22;1616;52.394;9.756;2024-03-06T10:53:20;11.80;92.10
3208;DHT22;1616;52.394;9.756;2024-03-06T10:55:47;11.80;91.90
3208;DHT22;1616;52.394;9.756;2024-03-06T10:58:15;11.90;92.00
3208;DHT22;1616;52.394;9.756;2024-03-06T11:00:46;12.10;92.20
3208;DHT22;1616;52.394;9.756;2024-03-06T11:03:13;12.20;90.70
3208;DHT22;1616;52.394;9.756;2024-03-06T11:05:43;12.40;89.20
3208;DHT22;1616;52.394;9.756;2024-03-06T11:08:11;12.50;87.50
3208;DHT22;1616;52.394;9.756;2024-03-06T11:10:39;12.70;85.10
3208;DHT22;1616;52.394;9.756;2024-03-06T11:15:50;13.00;84.70
3208;DHT22;1616;52.394;9.756;2024-03-06T11:23:29;13.40;83.10
3208;DHT22;1616;52.394;9.756;2024-03-06T11:26:02;13.50;80.90
3208;DHT22;1616;52.394;9.756;2024-03-06T11:28:34;13.50;80.70
3208;DHT22;1616;52.394;9.756;2024-03-06T11:31:02;13.50;79.40
3208;DHT22;1616;52.394;9.756;2024-03-06T11:36:21;13.40;77.00
3208;DHT22;1616;52.394;9.756;2024-03-06T11:38:57;13.20;76.20
3208;DHT22;1616;52.394;9.756;2024-03-06T11:41:29;13.10;76.20
3208;DHT22;1616;52.394;9.756;2024-03-06T11:43:56;12.90;77.00
3208;DHT22;1616;52.394;9.756;2024-03-06T11:46:23;12.80;77.40
3208;DHT22;1616;52.394;9.756;2024-03-06T11:49:21;12.80;77.90
3208;DHT22;1616;52.394;9.756;2024-03-06T11:51:48;12.80;77.20
3208;DHT22;1616;52.394;9.756;2024-03-06T11:54:15;12.70;77.60
3208;DHT22;1616;52.394;9.756;2024-03-06T11:56:44;12.60;76.50
3208;DHT22;1616;52.394;9.756;2024-03-06T11:59:10;12.40;75.20
3208;DHT22;1616;52.394;9.756;2024-03-06T12:01:37;12.20;76.00
3208;DHT22;1616;52.394;9.756;2024-03-06T12:04:03;12.10;76.00
3208;DHT22;1616;52.394;9.756;2024-03-06T12:06:31;12.00;76.40
3208;DHT22;1616;52.394;9.756;2024-03-06T12:08:58;12.00;77.00
3208;DHT22;1616;52.394;9.756;2024-03-06T12:11:24;12.00;76.90
3208;DHT22;1616;52.394;9.756;2024-03-06T12:13:51;11.90;75.90
3208;DHT22;1616;52.394;9.756;2024-03-06T12:16:17;11.90;75.80
3208;DHT22;1616;52.394;9.756;2024-03-06T12:18:43;11.80;75.90
3208;DHT22;1616;52.394;9.756;2024-03-06T12:21:13;11.80;76.20
3208;DHT22;1616;52.394;9.756;2024-03-06T12:23:41;11.80;77.00
3208;DHT22;1616;52.394;9.756;2024-03-06T12:26:08;11.90;77.40
3208;DHT22;1616;52.394;9.756;2024-03-06T12:28:36;12.00;76.90
3208;DHT22;1616;52.394;9.756;2024-03-06T12:31:03;12.10;76.80
3208;DHT22;1616;52.394;9.756;2024-03-06T12:33:29;12.10;75.90
3208;DHT22;1616;52.394;9.756;2024-03-06T12:36:05;12.20;75.80
3208;DHT22;1616;52.394;9.756;2024-03-06T12:38:32;12.20;75.10
3208;DHT22;1616;52.394;9.756;2024-03-06T12:40:58;12.20;74.30
3208;DHT22;1616;52.394;9.756;2024-03-06T12:43:25;12.30;74.30
3208;DHT22;1616;52.394;9.756;2024-03-06T12:45:50;12.30;73.80
3208;DHT22;1616;52.394;9.756;2024-03-06T12:48:21;12.30;73.70
3208;DHT22;1616;52.394;9.756;2024-03-06T12:50:46;12.40;73.90
3208;DHT22;1616;52.394;9.756;2024-03-06T12:53:21;12.40;74.00
3208;DHT22;1616;52.394;9.756;2024-03-06T12:55:47;12.40;74.50
3208;DHT22;1616;52.394;9.756;2024-03-06T12:58:14;12.50;73.70
3208;DHT22;1616;52.394;9.756;2024-03-06T13:00:40;12.50;72.80
3208;DHT22;1616;52.394;9.756;2024-03-06T13:03:06;12.50;72.50
3208;DHT22;1616;52.394;9.756;2024-03-06T13:05:32;12.60;72.30
3208;DHT22;1616;52.394;9.756;2024-03-06T13:07:58;12.70;71.40
3208;DHT22;1616;52.394;9.756;2024-03-06T13:10:27;12.80;71.20
3208;DHT22;1616;52.394;9.756;2024-03-06T13:12:53;12.90;71.50
3208;DHT22;1616;52.394;9.756;2024-03-06T13:15:19;13.10;71.00
3208;DHT22;1616;52.394;9.756;2024-03-06T13:17:47;13.10;70.10
3208;DHT22;1616;52.394;9.756;2024-03-06T13:20:12;13.20;70.40
3208;DHT22;1616;52.394;9.756;2024-03-06T13:22:38;13.20;69.60
3208;DHT22;1616;52.394;9.756;2024-03-06T13:25:04;13.10;69.50
3208;DHT22;1616;52.394;9.756;2024-03-06T13:27:30;13.10;70.60
3208;DHT22;1616;52.394;9.756;2024-03-06T13:29:56;13.20;70.70
3208;DHT22;1616;52.394;9.756;2024-03-06T13:32:22;13.20;70.00
3208;DHT22;1616;52.394;9.756;2024-03-06T13:34:48;13.20;69.70
3208;DHT22;1616;52.394;9.756;2024-03-06T13:37:14;13.10;69.20
3208;DHT22;1616;52.394;9.756;2024-03-06T13:39:40;13.10;69.00
3208;DHT22;1616;52.394;9.756;2024-03-06T13:42:06;13.00;69.10
3208;DHT22;1616;52.394;9.756;2024-03-06T13:44:37;12.90;69.10
3208;DHT22;1616;52.394;9.756;2024-03-06T13:47:03;12.80;69.00
3208;DHT22;1616;52.394;9.756;2024-03-06T13:49:38;12.70;68.90
3208;DHT22;1616;52.394;9.756;2024-03-06T13:52:04;12.60;68.60
3208;DHT22;1616;52.394;9.756;2024-03-06T13:54:31;12.50;68.60
3208;DHT22;1616;52.394;9.756;2024-03-06T13:56:57;12.40;69.00
3208;DHT22;1616;52.394;9.756;2024-03-06T13:59:32;12.20;69.00
3208;DHT22;1616;52.394;9.756;2024-03-06T14:01:58;12.10;69.20
3208;DHT22;1616;52.394;9.756;2024-03-06T14:04:28;12.00;69.30
3208;DHT22;1616;52.394;9.756;2024-03-06T14:06:54;11.80;70.10
3208;DHT22;1616;52.394;9.756;2024-03-06T14:09:19;11.80;71.10
3208;DHT22;1616;52.394;9.756;2024-03-06T14:11:46;11.70;71.40
3208;DHT22;1616;52.394;9.756;2024-03-06T14:14:11;11.70;71.50
3208;DHT22;1616;52.394;9.756;2024-03-06T14:16:39;11.70;71.60
3208;DHT22;1616;52.394;9.756;2024-03-06T14:19:05;11.60;71.40
3208;DHT22;1616;52.394;9.756;2024-03-06T14:21:31;11.60;71.40
3208;DHT22;1616;52.394;9.756;2024-03-06T14:24:00;11.60;71.40
3208;DHT22;1616;52.394;9.756;2024-03-06T14:26:30;11.50;71.40
3208;DHT22;1616;52.394;9.756;2024-03-06T14:28:56;11.50;71.80
3208;DHT22;1616;52.394;9.756;2024-03-06T14:31:22;11.50;72.10
3208;DHT22;1616;52.394;9.756;2024-03-06T14:33:49;11.50;72.00
3208;DHT22;1616;52.394;9.756;2024-03-06T14:36:16;11.60;71.90
3208;DHT22;1616;52.394;9.756;2024-03-06T14:38:42;11.60;71.70
3208;DHT22;1616;52.394;9.756;2024-03-06T14:41:09;11.60;71.40
3208;DHT22;1616;52.394;9.756;2024-03-06T14:43:35;11.60;71.40
3208;DHT22;1616;52.394;9.756;2024-03-06T14:46:06;11.60;70.90
3208;DHT22;1616;52.394;9.756;2024-03-06T14:48:33;11.60;70.60
3208;DHT22;1616;52.394;9.756;2024-03-06T14:51:00;11.50;70.10
3208;DHT22;1616;52.394;9.756;2024-03-06T14:53:26;11.50;70.20
3208;DHT22;1616;52.394;9.756;2024-03-06T14:55:51;11.50;70.40
3208;DHT22;1616;52.394;9.756;2024-03-06T14:58:17;11.50;70.80
3208;DHT22;1616;52.394;9.756;2024-03-06T15:00:42;11.50;71.00
3208;DHT22;1616;52.394;9.756;2024-03-06T15:03:08;11.50;71.40
3208;DHT22;1616;52.394;9.756;2024-03-06T15:05:35;11.50;71.50
3208;DHT22;1616;52.394;9.756;2024-03-06T15:08:00;11.50;71.30
3208;DHT22;1616;52.394;9.756;2024-03-06T15:10:26;11.50;71.80
3208;DHT22;1616;52.394;9.756;2024-03-06T15:12:52;11.50;71.50
3208;DHT22;1616;52.394;9.756;2024-03-06T15:15:18;11.50;71.30
3208;DHT22;1616;52.394;9.756;2024-03-06T15:17:44;11.50;71.70
3208;DHT22;1616;52.394;9.756;2024-03-06T15:20:12;11.40;71.20
3208;DHT22;1616;52.394;9.756;2024-03-06T15:22:38;11.40;71.50
3208;DHT22;1616;52.394;9.756;2024-03-06T15:25:08;11.30;71.10
3208;DHT22;1616;52.394;9.756;2024-03-06T15:27:35;11.20;71.30
3208;DHT22;1616;52.394;9.756;2024-03-06T15:30:02;11.10;71.10
3208;DHT22;1616;52.394;9.756;2024-03-06T15:32:28;11.00;71.20
3208;DHT22;1616;52.394;9.756;2024-03-06T15:34:55;11.00;71.60
3208;DHT22;1616;52.394;9.756;2024-03-06T15:37:24;10.90;71.90
3208;DHT22;1616;52.394;9.756;2024-03-06T15:39:53;10.80;72.00
3208;DHT22;1616;52.394;9.756;2024-03-06T15:42:19;10.70;72.20
3208;DHT22;1616;52.394;9.756;2024-03-06T15:44:47;10.70;72.70
3208;DHT22;1616;52.394;9.756;2024-03-06T15:47:13;10.60;72.90
3208;DHT22;1616;52.394;9.756;2024-03-06T15:49:39;10.60;73.50
3208;DHT22;1616;52.394;9.756;2024-03-06T15:52:06;10.50;73.70
3208;DHT22;1616;52.394;9.756;2024-03-06T15:54:33;10.50;73.40
3208;DHT22;1616;52.394;9.756;2024-03-06T15:56:59;10.40;73.50
3208;DHT22;1616;52.394;9.756;2024-03-06T15:59:26;10.30;73.70
3208;DHT22;1616;52.394;9.756;2024-03-06T16:01:53;10.30;74.00
3208;DHT22;1616;52.394;9.756;2024-03-06T16:04:19;10.20;74.00
3208;DHT22;1616;52.394;9.756;2024-03-06T16:06:44;10.20;74.30
3208;DHT22;1616;52.394;9.756;2024-03-06T16:09:10;10.10;74.30
3208;DHT22;1616;52.394;9.756;2024-03-06T16:11:40;10.10;74.40
3208;DHT22;1616;52.394;9.756;2024-03-06T16:14:05;10.00;74.40
3208;DHT22;1616;52.394;9.756;2024-03-06T16:16:31;10.00;74.60
3208;DHT22;1616;52.394;9.756;2024-03-06T16:18:59;9.90;75.80